createdAt,value
2019-04-21T00:01:18.252Z,37.96
2019-04-21T00:03:53.231Z,38.02
2019-04-21T00:06:43.952Z,38.02
2019-04-21T00:09:14.014Z,37.95
2019-04-21T00:11:41.302Z,38.08
2019-04-21T00:14:05.753Z,38.08
2019-04-21T00:16:32.142Z,38.20
2019-04-21T00:19:24.690Z,38.23
2019-04-21T00:21:56.381Z,38.21
2019-04-21T00:24:33.708Z,38.39
2019-04-21T00:27:13.894Z,38.26
2019-04-21T00:29:49.153Z,38.19
2019-04-21T00:32:11.487Z,38.28
2019-04-21T00:34:27.991Z,38.19
2019-04-21T00:37:11.064Z,38.05
2019-04-21T00:39:56.980Z,38.27
2019-04-21T00:42:19.952Z,38.37
2019-04-21T00:44:51.318Z,38.20
2019-04-21T00:47:26.738Z,38.18
2019-04-21T00:49:56.494Z,38.32
2019-04-21T00:52:57.583Z,38.23
2019-04-21T00:55:36.504Z,38.40
2019-04-21T00:58:03.499Z,38.28
2019-04-21T01:00:36.366Z,38.29
2019-04-21T01:03:09.394Z,38.33
2019-04-21T01:05:43.942Z,38.42
2019-04-21T01:08:04.700Z,38.46
2019-04-21T01:10:28.665Z,38.40
2019-04-21T01:13:14.000Z,38.35
2019-04-21T01:15:47.433Z,38.44
2019-04-21T01:18:09.090Z,38.32
2019-04-21T01:20:20.819Z,38.47
2019-04-21T01:22:51.509Z,38.45
2019-04-21T01:25:30.266Z,38.47
2019-04-21T01:28:09.975Z,38.48
2019-04-21T01:30:44.843Z,38.41
2019-04-21T01:33:15.344Z,38.41
2019-04-21T01:35:44.139Z,38.69
2019-04-21T01:38:24.168Z,38.39
2019-04-21T01:40:57.164Z,38.63
2019-04-21T01:43:23.432Z,38.52
2019-04-21T01:45:53.487Z,38.51
2019-04-21T01:48:21.537Z,38.42
2019-04-21T01:50:58.181Z,38.48
2019-04-21T01:53:36.465Z,38.53
2019-04-21T01:56:30.492Z,38.53
2019-04-21T01:58:53.240Z,38.46
2019-04-21T02:01:34.537Z,38.61
2019-04-21T02:04:02.730Z,38.43
2019-04-21T02:06:33.403Z,38.51
2019-04-21T02:09:05.125Z,38.53
2019-04-21T02:11:43.354Z,38.43
2019-04-21T02:14:11.635Z,38.44
2019-04-21T02:16:40.542Z,38.52
2019-04-21T02:19:04.813Z,38.60
2019-04-21T02:21:37.024Z,38.70
2019-04-21T02:24:23.926Z,38.57
2019-04-21T02:26:45.740Z,38.51
2019-04-21T02:29:25.402Z,38.65
2019-04-21T02:32:07.920Z,38.51
2019-04-21T02:34:37.405Z,38.65
2019-04-21T02:39:29.655Z,38.57
2019-04-21T02:44:37.653Z,38.46
2019-04-21T02:46:54.584Z,38.52
2019-04-21T02:52:18.235Z,38.75
2019-04-21T03:00:06.428Z,38.72
2019-04-21T03:02:54.691Z,38.63
2019-04-21T03:13:21.600Z,38.71
2019-04-21T03:15:52.923Z,38.63
2019-04-21T03:18:12.977Z,38.59
2019-04-21T03:20:42.161Z,38.59
2019-04-21T03:23:36.648Z,38.60
2019-04-21T03:28:27.859Z,38.62
2019-04-21T03:38:31.878Z,38.81
2019-04-21T03:40:48.882Z,38.77
2019-04-21T03:43:31.722Z,38.83
2019-04-21T03:46:01.251Z,38.92
2019-04-21T03:48:36.184Z,38.93
2019-04-21T03:50:56.331Z,39.00
2019-04-21T03:53:31.349Z,38.99
2019-04-21T03:58:50.486Z,38.76
2019-04-21T04:04:05.793Z,38.94
2019-04-21T04:06:57.076Z,39.08
2019-04-21T04:09:26.188Z,39.23
2019-04-21T04:16:59.411Z,39.11
2019-04-21T04:19:26.364Z,39.28
2019-04-21T04:21:59.113Z,39.25
2019-04-21T04:24:39.528Z,38.19
2019-04-21T04:27:00.966Z,38.19
2019-04-21T04:29:24.067Z,38.30
2019-04-21T04:31:53.482Z,38.13
2019-04-21T04:34:29.587Z,37.97
2019-04-21T04:37:05.359Z,37.79
2019-04-21T04:40:05.699Z,37.60
2019-04-21T04:45:25.725Z,36.91
2019-04-21T04:47:36.977Z,35.74
2019-04-21T04:50:22.589Z,35.25
2019-04-21T04:57:51.280Z,34.91
2019-04-21T05:12:43.845Z,34.74
2019-04-21T05:15:12.757Z,35.00
2019-04-21T05:17:43.520Z,34.95
2019-04-21T05:22:42.631Z,34.50
2019-04-21T05:25:08.673Z,33.98
2019-04-21T05:27:38.648Z,34.27
2019-04-21T05:30:29.576Z,33.89
2019-04-21T05:33:23.416Z,33.66
2019-04-21T05:35:51.935Z,33.27
2019-04-21T05:38:31.549Z,33.00
2019-04-21T05:40:55.165Z,32.87
2019-04-21T05:43:41.746Z,32.95
2019-04-21T05:46:12.423Z,32.63
2019-04-21T05:48:47.774Z,32.48
2019-04-21T05:51:18.133Z,32.73
2019-04-21T05:53:46.716Z,32.62
2019-04-21T05:56:27.254Z,32.59
2019-04-21T05:58:52.451Z,32.66
2019-04-21T06:01:31.472Z,32.54
2019-04-21T06:04:01.736Z,32.56
2019-04-21T06:06:31.033Z,32.75
2019-04-21T06:08:53.967Z,32.68
2019-04-21T06:11:30.679Z,32.69
2019-04-21T06:14:04.411Z,32.56
2019-04-21T06:16:41.311Z,32.80
2019-04-21T06:19:06.688Z,32.36
2019-04-21T06:21:35.963Z,32.35
2019-04-21T06:24:02.514Z,33.03
2019-04-21T06:29:02.771Z,32.81
2019-04-21T06:32:02.381Z,33.01
2019-04-21T06:34:11.373Z,33.06
2019-04-21T06:36:57.302Z,33.11
2019-04-21T06:39:28.332Z,33.08
2019-04-21T06:41:55.674Z,33.01
2019-04-21T06:44:24.016Z,33.00
2019-04-21T06:47:02.653Z,33.00
2019-04-21T06:49:27.408Z,32.95
2019-04-21T06:52:11.304Z,32.87
2019-04-21T06:54:33.898Z,32.70
2019-04-21T06:56:56.582Z,32.79
2019-04-21T06:59:37.200Z,32.67
2019-04-21T07:02:28.716Z,32.77
2019-04-21T07:04:39.561Z,32.58
2019-04-21T07:07:05.617Z,32.40
2019-04-21T07:09:36.500Z,32.43
2019-04-21T07:12:06.206Z,32.43
2019-04-21T07:14:54.725Z,32.42
2019-04-21T07:22:21.095Z,32.06
2019-04-21T07:24:45.839Z,31.98
2019-04-21T07:27:15.231Z,31.98
2019-04-21T07:29:50.559Z,31.83
2019-04-21T07:32:18.444Z,31.89
2019-04-21T07:34:52.275Z,31.65
2019-04-21T07:37:19.745Z,31.83
2019-04-21T07:39:45.209Z,31.98
2019-04-21T07:42:17.469Z,31.92
2019-04-21T07:44:46.369Z,31.85
2019-04-21T07:47:27.133Z,31.82
2019-04-21T07:50:07.092Z,31.81
2019-04-21T07:57:53.133Z,31.72
2019-04-21T08:00:30.900Z,31.64
2019-04-21T08:02:54.457Z,31.71
2019-04-21T08:05:27.946Z,31.47
2019-04-21T08:07:55.803Z,31.30
2019-04-21T08:10:26.301Z,31.36
2019-04-21T08:13:01.175Z,31.03
2019-04-21T08:15:38.654Z,30.86
2019-04-21T08:18:03.727Z,30.82
2019-04-21T08:20:29.118Z,30.80
2019-04-21T08:23:07.620Z,30.83
2019-04-21T08:25:50.825Z,30.65
2019-04-21T08:28:05.368Z,30.33
2019-04-21T08:30:38.109Z,30.32
2019-04-21T08:33:18.780Z,30.47
2019-04-21T08:38:13.569Z,30.30
2019-04-21T08:40:51.084Z,30.37
2019-04-21T08:43:21.711Z,30.51
2019-04-21T08:45:49.806Z,30.24
2019-04-21T08:48:18.183Z,30.13
2019-04-21T08:50:55.054Z,30.22
2019-04-21T08:53:22.651Z,30.11
2019-04-21T08:56:21.711Z,29.99
2019-04-21T08:59:30.925Z,29.98
2019-04-21T09:02:29.729Z,29.83
2019-04-21T09:04:52.774Z,29.53
2019-04-21T09:07:33.136Z,29.45
2019-04-21T09:09:58.046Z,29.53
2019-04-21T09:12:33.128Z,29.13
2019-04-21T09:15:02.717Z,29.36
2019-04-21T09:17:25.165Z,29.42
2019-04-21T09:22:37.136Z,29.48
2019-04-21T09:25:01.466Z,29.53
2019-04-21T09:27:32.302Z,29.34
2019-04-21T09:29:55.314Z,29.48
2019-04-21T09:32:23.896Z,29.64
2019-04-21T09:34:52.738Z,30.79
2019-04-21T09:37:37.177Z,30.13
2019-04-21T09:39:55.905Z,29.90
2019-04-21T09:42:32.843Z,30.31
2019-04-21T09:45:00.874Z,30.50
2019-04-21T09:47:36.533Z,30.12
2019-04-21T09:49:58.556Z,31.28
2019-04-21T09:52:38.907Z,31.50
2019-04-21T09:55:06.881Z,31.82
2019-04-21T09:57:38.181Z,31.73
2019-04-21T10:00:12.000Z,32.00
2019-04-21T10:02:42.302Z,32.22
2019-04-21T10:05:05.341Z,31.75
2019-04-21T10:07:39.068Z,31.86
2019-04-21T10:10:06.396Z,32.20
2019-04-21T10:12:37.244Z,32.22
2019-04-21T10:15:08.414Z,31.56
2019-04-21T10:17:41.911Z,31.81
2019-04-21T10:20:11.798Z,31.88
2019-04-21T10:22:41.464Z,31.98
2019-04-21T10:25:10.851Z,32.14
2019-04-21T10:27:41.272Z,31.95
2019-04-21T10:30:11.966Z,32.21
2019-04-21T10:32:42.653Z,31.94
2019-04-21T10:35:12.869Z,31.65
2019-04-21T10:37:53.643Z,31.47
2019-04-21T10:40:13.800Z,31.10
2019-04-21T10:42:43.599Z,31.54
2019-04-21T10:45:13.027Z,31.28
2019-04-21T10:47:43.041Z,31.05
2019-04-21T10:50:13.096Z,31.05
2019-04-21T10:53:16.705Z,31.46
2019-04-21T10:56:01.475Z,30.89
2019-04-21T10:58:36.401Z,30.72
2019-04-21T11:01:23.255Z,31.28
2019-04-21T11:04:27.080Z,31.68
2019-04-21T11:06:52.663Z,31.31
2019-04-21T11:09:22.153Z,31.64
2019-04-21T11:11:53.381Z,31.12
2019-04-21T11:14:23.165Z,30.89
2019-04-21T11:16:53.420Z,30.92
2019-04-21T11:19:24.271Z,31.02
2019-04-21T11:21:54.684Z,31.05
2019-04-21T11:24:25.028Z,31.31
2019-04-21T11:26:55.821Z,30.86
2019-04-21T11:29:26.349Z,31.55
2019-04-21T11:31:56.893Z,31.24
2019-04-21T11:34:27.313Z,31.26
2019-04-21T11:36:56.748Z,31.10
2019-04-21T11:39:39.155Z,31.02
2019-04-21T11:42:01.707Z,30.86
2019-04-21T11:44:31.254Z,30.93
2019-04-21T11:47:00.642Z,30.95
2019-04-21T11:49:32.388Z,31.05
2019-04-21T11:52:02.840Z,31.09
2019-04-21T11:54:32.903Z,31.07
2019-04-21T11:57:11.732Z,31.09
2019-04-21T11:59:33.551Z,30.96
2019-04-21T12:02:03.551Z,30.90
2019-04-21T12:04:33.696Z,30.92
2019-04-21T12:07:03.112Z,30.82
2019-04-21T12:09:33.346Z,31.01
2019-04-21T12:12:03.404Z,30.82
2019-04-21T12:14:34.103Z,29.97
2019-04-21T12:17:03.626Z,30.86
2019-04-21T12:19:33.060Z,30.79
2019-04-21T12:22:10.988Z,30.51
2019-04-21T12:24:36.830Z,30.64
2019-04-21T12:27:07.777Z,29.83
2019-04-21T12:29:37.810Z,29.93
2019-04-21T12:32:32.164Z,30.67
2019-04-21T12:35:01.912Z,30.29
2019-04-21T12:37:31.307Z,30.31
2019-04-21T12:40:00.885Z,30.48
2019-04-21T12:42:30.406Z,30.60
2019-04-21T12:44:59.838Z,30.79
2019-04-21T12:47:30.204Z,30.63
2019-04-21T12:49:59.673Z,30.73
2019-04-21T12:52:29.488Z,30.66
2019-04-21T12:54:59.687Z,30.45
2019-04-21T12:57:31.489Z,30.32
2019-04-21T13:00:00.566Z,30.57
2019-04-21T13:02:30.038Z,30.54
2019-04-21T13:04:59.779Z,30.07
2019-04-21T13:07:29.196Z,30.64
2019-04-21T13:10:00.036Z,30.43
2019-04-21T13:12:29.523Z,30.65
2019-04-21T13:14:59.601Z,30.55
2019-04-21T13:17:31.078Z,30.02
2019-04-21T13:20:01.183Z,30.27
2019-04-21T13:22:32.002Z,30.69
2019-04-21T13:25:02.429Z,30.65
2019-04-21T13:27:31.959Z,30.20
2019-04-21T13:30:02.196Z,30.81
2019-04-21T13:32:33.079Z,30.82
2019-04-21T13:35:03.342Z,30.98
2019-04-21T13:37:33.282Z,30.90
2019-04-21T13:40:44.959Z,30.79
2019-04-21T13:43:03.922Z,30.82
2019-04-21T13:45:32.077Z,30.75
2019-04-21T13:48:01.682Z,30.99
2019-04-21T13:50:31.324Z,30.85
2019-04-21T13:53:00.979Z,30.92
2019-04-21T13:55:31.865Z,30.45
2019-04-21T13:58:02.092Z,30.30
2019-04-21T14:00:31.911Z,30.25
2019-04-21T14:03:02.823Z,30.42
2019-04-21T14:05:32.673Z,30.54
2019-04-21T14:08:03.106Z,30.21
2019-04-21T14:10:33.514Z,30.27
2019-04-21T14:13:02.929Z,30.13
2019-04-21T14:15:32.502Z,30.11
2019-04-21T14:18:02.811Z,30.13
2019-04-21T14:20:33.292Z,30.15
2019-04-21T14:23:13.511Z,30.21
2019-04-21T14:25:35.305Z,30.18
2019-04-21T14:28:06.100Z,30.25
2019-04-21T14:30:36.516Z,30.29
2019-04-21T14:33:05.955Z,30.21
2019-04-21T14:35:36.633Z,30.31
2019-04-21T14:38:06.937Z,29.42
2019-04-21T14:40:37.356Z,27.68
2019-04-21T14:43:08.028Z,26.79
2019-04-21T14:46:02.962Z,26.10
2019-04-21T14:49:03.618Z,24.37
2019-04-21T14:51:47.532Z,23.77
2019-04-21T14:54:44.586Z,23.58
2019-04-21T14:57:15.416Z,23.34
2019-04-21T14:59:45.022Z,23.45
2019-04-21T15:02:15.758Z,23.52
2019-04-21T15:04:45.905Z,23.00
2019-04-21T15:07:15.368Z,23.41
2019-04-21T15:09:46.361Z,23.45
2019-04-21T15:12:16.286Z,24.53
2019-04-21T15:14:47.672Z,25.24
2019-04-21T15:17:19.519Z,26.19
2019-04-21T15:19:50.975Z,26.25
2019-04-21T15:22:20.725Z,26.76
2019-04-21T15:24:52.123Z,27.08
2019-04-21T15:27:25.139Z,27.50
2019-04-21T15:29:54.554Z,28.12
2019-04-21T15:32:24.292Z,27.89
2019-04-21T15:34:54.093Z,28.68
2019-04-21T15:37:24.133Z,29.47
2019-04-21T15:39:53.567Z,30.18
2019-04-21T15:42:24.340Z,30.70
2019-04-21T15:44:54.631Z,30.84
2019-04-21T15:47:24.101Z,31.08
2019-04-21T15:50:04.630Z,31.42
2019-04-21T15:52:29.881Z,31.63
2019-04-21T15:55:18.902Z,31.73
2019-04-21T15:58:00.589Z,31.77
2019-04-21T16:00:40.513Z,32.29
2019-04-21T16:05:38.626Z,31.17
2019-04-21T16:08:08.095Z,34.60
2019-04-21T16:10:45.327Z,34.04
2019-04-21T16:13:09.808Z,33.60
2019-04-21T16:15:40.760Z,36.25
2019-04-21T16:18:10.350Z,35.75
2019-04-21T16:20:39.954Z,37.13
2019-04-21T16:23:10.718Z,36.52
2019-04-21T16:25:41.141Z,34.81
2019-04-21T16:28:11.138Z,35.13
2019-04-21T16:30:40.816Z,35.14
2019-04-21T16:33:10.272Z,35.26
2019-04-21T16:35:40.001Z,34.97
2019-04-21T16:38:09.461Z,35.31
2019-04-21T16:40:46.873Z,36.93
2019-04-21T16:43:10.131Z,35.31
2019-04-21T16:45:41.007Z,38.70
2019-04-21T16:48:10.579Z,40.00
2019-04-21T16:50:41.423Z,37.61
2019-04-21T16:53:17.489Z,39.63
2019-04-21T16:55:51.190Z,36.90
2019-04-21T16:58:30.824Z,39.37
2019-04-21T17:01:10.231Z,39.61
2019-04-21T17:03:34.808Z,40.20
2019-04-21T17:06:05.142Z,39.99
2019-04-21T17:08:36.710Z,39.71
2019-04-21T17:11:16.471Z,41.01
2019-04-21T17:13:38.303Z,41.18
2019-04-21T17:16:36.459Z,41.32
2019-04-21T17:18:50.822Z,40.50
2019-04-21T17:21:11.114Z,41.28
2019-04-21T17:23:41.386Z,41.24
2019-04-21T17:26:11.070Z,41.10
2019-04-21T17:28:40.790Z,41.35
2019-04-21T17:31:10.977Z,41.39
2019-04-21T17:33:41.413Z,41.38
2019-04-21T17:36:11.504Z,41.80
2019-04-21T17:38:41.859Z,41.16
2019-04-21T17:41:21.847Z,40.53
2019-04-21T17:43:43.657Z,40.99
2019-04-21T17:46:20.332Z,40.99
2019-04-21T17:48:45.149Z,40.56
2019-04-21T17:51:31.964Z,40.34
2019-04-21T17:54:16.717Z,40.16
2019-04-21T17:57:16.285Z,38.92
2019-04-21T17:59:47.639Z,40.44
2019-04-21T18:02:02.245Z,40.71
2019-04-21T18:04:31.037Z,40.45
2019-04-21T18:07:08.143Z,40.46
2019-04-21T18:09:51.120Z,39.68
2019-04-21T18:12:12.307Z,39.16
2019-04-21T18:14:28.476Z,41.65
2019-04-21T18:16:58.323Z,42.44
2019-04-21T18:19:31.022Z,42.13
2019-04-21T18:22:31.277Z,41.09
2019-04-21T18:25:03.674Z,41.16
2019-04-21T18:27:28.352Z,41.56
2019-04-21T18:30:02.494Z,41.38
2019-04-21T18:32:38.555Z,41.64
2019-04-21T18:35:22.726Z,41.18
2019-04-21T18:38:22.757Z,41.26
2019-04-21T18:40:49.060Z,40.98
2019-04-21T18:46:43.813Z,40.70
2019-04-21T18:49:11.209Z,40.52
2019-04-21T18:52:06.863Z,40.26
2019-04-21T18:54:45.834Z,40.20
2019-04-21T18:57:10.579Z,40.11
2019-04-21T18:59:37.793Z,40.11
2019-04-21T19:02:06.870Z,40.03
2019-04-21T19:04:37.123Z,39.92
2019-04-21T19:07:20.073Z,39.68
2019-04-21T19:12:47.347Z,39.82
2019-04-21T19:14:55.001Z,39.73
2019-04-21T19:18:05.242Z,39.66
2019-04-21T19:20:10.433Z,39.50
2019-04-21T19:22:32.520Z,39.48
2019-04-21T19:25:07.293Z,39.46
2019-04-21T19:27:31.109Z,39.43
2019-04-21T19:30:17.701Z,39.41
2019-04-21T19:32:33.488Z,39.40
2019-04-21T19:34:54.897Z,39.43
2019-04-21T19:37:25.906Z,39.21
2019-04-21T19:40:05.674Z,39.09
2019-04-21T19:42:35.416Z,39.10
2019-04-21T19:45:10.777Z,39.10
2019-04-21T19:47:44.986Z,39.00
2019-04-21T19:50:16.853Z,38.93
2019-04-21T19:52:40.546Z,38.78
2019-04-21T19:55:00.576Z,38.78
2019-04-21T19:57:31.339Z,38.51
2019-04-21T20:00:04.322Z,38.60
2019-04-21T20:02:32.355Z,37.94
2019-04-21T20:05:07.006Z,38.23
2019-04-21T20:07:49.452Z,37.53
2019-04-21T20:10:27.013Z,37.42
2019-04-21T20:12:53.702Z,37.37
2019-04-21T20:15:33.015Z,37.37
2019-04-21T20:17:57.549Z,37.34
2019-04-21T20:20:11.110Z,37.21
2019-04-21T20:22:44.069Z,37.19
2019-04-21T20:25:16.117Z,37.19
2019-04-21T20:27:54.553Z,37.16
2019-04-21T20:30:31.076Z,37.05
2019-04-21T20:33:04.572Z,37.01
2019-04-21T20:38:04.779Z,37.96
2019-04-21T20:40:31.803Z,38.53
2019-04-21T20:43:08.632Z,38.67
2019-04-21T20:45:41.722Z,38.92
2019-04-21T20:47:54.619Z,38.82
2019-04-21T20:50:36.376Z,38.75
2019-04-21T20:53:11.032Z,38.53
2019-04-21T20:55:39.488Z,37.94
2019-04-21T20:58:09.136Z,38.40
2019-04-21T21:01:03.007Z,38.55
2019-04-21T21:03:23.403Z,38.36
2019-04-21T21:05:45.791Z,38.38
2019-04-21T21:08:26.036Z,38.59
2019-04-21T21:10:43.935Z,38.43
2019-04-21T21:13:26.696Z,38.46
2019-04-21T21:16:06.189Z,38.34
2019-04-21T21:18:38.021Z,38.39
2019-04-21T21:20:54.142Z,38.57
2019-04-21T21:23:20.434Z,38.57
2019-04-21T21:25:57.311Z,38.53
2019-04-21T21:28:29.083Z,38.46
2019-04-21T21:30:59.384Z,38.37
2019-04-21T21:33:30.715Z,38.26
2019-04-21T21:36:06.450Z,38.18
2019-04-21T21:38:31.532Z,38.14
2019-04-21T21:40:56.936Z,38.06
2019-04-21T21:43:22.897Z,38.07
2019-04-21T21:45:55.571Z,37.98
2019-04-21T21:48:31.705Z,37.98
2019-04-21T21:51:02.262Z,37.95
2019-04-21T21:53:25.484Z,37.94
2019-04-21T21:55:53.692Z,37.98
2019-04-21T21:58:28.635Z,38.02
2019-04-21T22:00:58.486Z,38.00
2019-04-21T22:03:33.019Z,37.92
2019-04-21T22:06:02.351Z,37.93
2019-04-21T22:08:28.268Z,37.96
2019-04-21T22:10:58.982Z,38.03
2019-04-21T22:13:39.960Z,37.95
2019-04-21T22:16:06.049Z,37.99
2019-04-21T22:18:43.944Z,37.94
2019-04-21T22:21:13.877Z,37.89
2019-04-21T22:23:46.974Z,37.89
2019-04-21T22:26:05.223Z,37.94
2019-04-21T22:28:35.950Z,37.91
2019-04-21T22:31:13.161Z,37.94
2019-04-21T22:33:41.928Z,37.81
2019-04-21T22:36:21.027Z,37.95
2019-04-21T22:38:54.918Z,37.87
2019-04-21T22:41:22.068Z,37.79
2019-04-21T22:43:46.141Z,37.73
2019-04-21T22:46:15.471Z,37.80
2019-04-21T22:48:52.248Z,37.69
2019-04-21T22:51:23.981Z,37.79
2019-04-21T22:53:50.781Z,37.73
2019-04-21T22:56:24.454Z,37.69
2019-04-21T22:58:51.079Z,37.73
2019-04-21T23:01:30.096Z,37.76
2019-04-21T23:03:56.922Z,37.70
2019-04-21T23:06:27.542Z,37.71
2019-04-21T23:08:55.126Z,37.80
2019-04-21T23:11:29.238Z,37.72
2019-04-21T23:14:03.754Z,37.67
2019-04-21T23:16:32.225Z,37.87
2019-04-21T23:19:17.264Z,37.75
2019-04-21T23:21:51.232Z,37.75
2019-04-21T23:24:26.144Z,37.87
2019-04-21T23:26:50.730Z,37.73
2019-04-21T23:29:25.725Z,37.77
2019-04-21T23:31:51.797Z,37.84
2019-04-21T23:34:06.294Z,37.73
2019-04-21T23:36:41.021Z,37.81
2019-04-21T23:39:19.516Z,37.79
2019-04-21T23:41:42.395Z,37.67
2019-04-21T23:44:13.689Z,37.73
2019-04-21T23:46:42.625Z,37.71
2019-04-21T23:49:23.146Z,37.71
2019-04-21T23:51:51.163Z,37.66
2019-04-21T23:54:15.611Z,37.71
2019-04-21T23:56:47.540Z,37.57
2019-04-21T23:59:17.973Z,37.53
